METAR (acronimo di METeorological Air Report) è un messaggio meteo emesso nella maggior parte dei casi in ambito aeroportuale

CYYZ - Toronto-Pearson, Ontario, Canada
Ultimo Aggiornamento: Giovedì 03 Dicembre 2020 17:00 CET
Prevalentemente Nuvoloso
Prevalentemente Nuvoloso
 Wind from Ovest-Sud-Ovest
Vento: Ovest-Sud-Ovest 24 km/h, Raffica: 37 km/h
Temperatura: 3°C
Wind Chill: -2°C
Punto di Rugiada: -4°C
Umidità: 60%
Barometro: 1016.3 hPa
Nuvole: Prevalentemente Nuvoloso
Visibilità: 24 km
Nuvole nel Dettaglio: Prevalentemente Nuvoloso 914 m
Prevalentemente Nuvoloso 5486 m
Prevalentemente Nuvoloso 7620 m
2020/12/03 16:00 CYYZ 031600Z 24013G20KT 15SM BKN030 BKN180 BKN250 03/M04 A3001 RMK SC7AC1CI1 AC TR CI TR SLP171
CYHZ - Halifax, Nova Scotia, Canada
Ultimo Aggiornamento: Giovedì 03 Dicembre 2020 17:00 CET
Prevalentemente Nuvoloso
Prevalentemente Nuvoloso
 Wind from Ovest
Vento: Ovest 13 km/h
Temperatura: 5°C
Wind Chill: 2°C
Punto di Rugiada: 2°C
Umidità: 81%
Barometro: 1015.9 hPa
Nuvole: Prevalentemente Nuvoloso
Visibilità: 24 km
Nuvole nel Dettaglio: Prevalentemente Nuvoloso 732 m
2020/12/03 16:00 CYHZ 031600Z 27007KT 15SM BKN024 05/02 A3000 RMK CU7 SLP165
CYOW - Ottawa, Ontario, Canada
Ultimo Aggiornamento: Giovedì 03 Dicembre 2020 17:00 CET
Prevalentemente Nuvoloso
Prevalentemente Nuvoloso
 Wind from Sud-Sud-Ovest
Vento: Sud-Sud-Ovest 26 km/h, Raffica: 37 km/h
Temperatura: 3°C
Wind Chill: -2°C
Punto di Rugiada: -1°C
Umidità: 75%
Barometro: 1012.2 hPa
Nuvole: Prevalentemente Nuvoloso
Visibilità: 24 km
Nuvole nel Dettaglio: Parzialmente Nuvoloso 823 m
Prevalentemente Nuvoloso 1250 m
2020/12/03 16:00 CYOW 031600Z 21014G20KT 15SM SCT027 BKN041 03/M01 A2989 RMK SC3SC4 SLP129
 
PANC - Anchorage, Alaska, United States
Ultimo Aggiornamento: Giovedì 03 Dicembre 2020 17:53 CET
Nuvoloso
Nuvoloso
 Wind from Sud-Sud-Ovest
Vento: Sud-Sud-Ovest 11 km/h
Temperatura: -4°C
Wind Chill: -8°C
Punto di Rugiada: -8°C
Umidità: 74%
Barometro: 1005.1 hPa
Nuvole: Nuvoloso
Visibilità: 16 km
Nuvole nel Dettaglio: Prevalentemente Nuvoloso 1524 m
Prevalentemente Nuvoloso 1829 m
Nuvoloso 2286 m
2020/12/03 16:53 PANC 031653Z 21006KT 10SM BKN050 BKN060 OVC075 M04/M08 A2968 RMK AO2 SLP054 T10391083
KIAD - Washington-Dulles, Virginia, United States
Ultimo Aggiornamento: Giovedì 03 Dicembre 2020 17:52 CET
Prevalentemente Nuvoloso
Prevalentemente Nuvoloso
 Wind from Sud-Sud-Ovest
Vento: Sud-Sud-Ovest 7 km/h
Temperatura: 10°C
Wind Chill: 9°C
Punto di Rugiada: -7°C
Umidità: 30%
Barometro: 1025.1 hPa
Nuvole: Prevalentemente Nuvoloso
Visibilità: 16 km
Nuvole nel Dettaglio: Qualche Nuvola 1524 m
Prevalentemente Nuvoloso 7620 m
2020/12/03 16:52 KIAD 031652Z 21004KT 10SM FEW050 BKN250 10/M07 A3027 RMK AO2 SLP250 T01001067
KJFK - New York-JFK, New York, United States
Ultimo Aggiornamento: Giovedì 03 Dicembre 2020 17:51 CET
Parzialmente Nuvoloso
Parzialmente Nuvoloso
 Wind from Ovest
Vento: Ovest 19 km/h
Temperatura: 8°C
Wind Chill: 4°C
Punto di Rugiada: -4°C
Umidità: 43%
Barometro: 1023.4 hPa
Nuvole: Parzialmente Nuvoloso
Visibilità: 16 km
Nuvole nel Dettaglio: Parzialmente Nuvoloso 7620 m
2020/12/03 16:51 KJFK 031651Z 26010KT 10SM SCT250 08/M04 A3022 RMK AO2 SLP231 T00831044
 
KORD - Chicago, Illinois, United States
Ultimo Aggiornamento: Giovedì 03 Dicembre 2020 17:51 CET
Parzialmente Nuvoloso
Parzialmente Nuvoloso
 Wind from Ovest-Sud-Ovest
Vento: Ovest-Sud-Ovest 19 km/h
Temperatura: 3°C
Wind Chill: -2°C
Punto di Rugiada: -4°C
Umidità: 60%
Barometro: 1020 hPa
Nuvole: Parzialmente Nuvoloso
Visibilità: 16 km
Nuvole nel Dettaglio: Qualche Nuvola 3658 m
Parzialmente Nuvoloso 7620 m
2020/12/03 16:51 KORD 031651Z 25010KT 10SM FEW120 SCT250 03/M04 A3012 RMK AO2 SLP204 T00331039 $
KDEN - Denver, Colorado, United States
Ultimo Aggiornamento: Giovedì 03 Dicembre 2020 17:53 CET
Qualche Nuvola
Qualche Nuvola
 Wind from Sud-Ovest
Vento: Sud-Ovest 11 km/h
Temperatura: 2°C
Wind Chill: -1°C
Punto di Rugiada: -12°C
Umidità: 35%
Barometro: 1026.8 hPa
Nuvole: Qualche Nuvola
Visibilità: 16 km
Nuvole nel Dettaglio: Qualche Nuvola 6096 m
2020/12/03 16:53 KDEN 031653Z 22006KT 10SM FEW200 02/M12 A3032 RMK AO2 SLP289 T00171117
KSLC - Salt Lake City, Utah, United States
Ultimo Aggiornamento: Giovedì 03 Dicembre 2020 17:54 CET
Qualche Nuvola
Qualche Nuvola
 Wind from Sud-Est
Vento: Sud-Est 7 km/h
Temperatura: -2°C
Wind Chill: -6°C
Punto di Rugiada: -9°C
Umidità: 59%
Barometro: 1033.9 hPa
Nuvole: Qualche Nuvola
Visibilità: 16 km
Nuvole nel Dettaglio: Qualche Nuvola 366 m
2020/12/03 16:54 KSLC 031654Z 14004KT 10SM FEW012 M02/M09 A3053 RMK AO2 SLP363 FU FEW012 FU NE T10171094
 
KBOS - Boston, Massachusetts, United States
Ultimo Aggiornamento: Giovedì 03 Dicembre 2020 17:54 CET
Qualche Nuvola
Qualche Nuvola
 Wind from Ovest-Sud-Ovest
Vento: Ovest-Sud-Ovest 20 km/h
Temperatura: 8°C
Wind Chill: 4°C
Punto di Rugiada: -4°C
Umidità: 43%
Barometro: 1019.6 hPa
Nuvole: Qualche Nuvola
Visibilità: 16 km
Nuvole nel Dettaglio: Qualche Nuvola 7620 m
2020/12/03 16:54 KBOS 031654Z 24011KT 10SM FEW250 08/M04 A3011 RMK AO2 SLP194 T00831044
KLAX - Los Angeles, California, United States
Ultimo Aggiornamento: Giovedì 03 Dicembre 2020 17:53 CET
Qualche Nuvola
Qualche Nuvola
 Wind from Nord
Vento: Nord 6 km/h
Temperatura: 18°C
Punto di Rugiada: -10°C
Umidità: 14%
Barometro: 1024 hPa
Nuvole: Qualche Nuvola
Visibilità: 16 km
Nuvole nel Dettaglio: Qualche Nuvola 1524 m
Qualche Nuvola 6096 m
2020/12/03 16:53 KLAX 031653Z 01003KT 10SM FEW050 FEW200 18/M10 A3024 RMK AO2 SLP240 FU FEW050 T01781100
KLAS - Las Vegas, Nevada, United States
Ultimo Aggiornamento: Giovedì 03 Dicembre 2020 16:56 CET
Sereno
Sereno
 Wind from Sud-Sud-Ovest
Vento: Sud-Sud-Ovest 6 km/h
Temperatura: 4°C
Punto di Rugiada: -12°C
Umidità: 30%
Barometro: 1031.5 hPa
Nuvole: Sereno
Visibilità: 16 km
2020/12/03 15:56 KLAS 031556Z 21003KT 10SM CLR 04/M12 A3046 RMK AO2 SLP318 T00391117
 
KSFO - San Francisco, California, United States
Ultimo Aggiornamento: Giovedì 03 Dicembre 2020 16:56 CET
Parzialmente Nuvoloso
Parzialmente Nuvoloso
 Wind from Sud
Vento: Sud 6 km/h
Temperatura: 9°C
Punto di Rugiada: 7°C
Umidità: 87%
Barometro: 1024.4 hPa
Nuvole: Parzialmente Nuvoloso
Visibilità: 16 km
Nuvole nel Dettaglio: Parzialmente Nuvoloso 6096 m
2020/12/03 15:56 KSFO 031556Z 18003KT 10SM SCT200 09/07 A3025 RMK AO2 SLP244 T00890067
KATL - Atlanta, Georgia, United States
Ultimo Aggiornamento: Giovedì 03 Dicembre 2020 17:52 CET
Parzialmente Nuvoloso
Parzialmente Nuvoloso
 Wind from Est-Sud-Est
Vento: Est-Sud-Est 15 km/h
Temperatura: 12°C
Punto di Rugiada: -3°C
Umidità: 35%
Barometro: 1027.1 hPa
Nuvole: Parzialmente Nuvoloso
Visibilità: 16 km
Nuvole nel Dettaglio: Parzialmente Nuvoloso 6096 m
Parzialmente Nuvoloso 7620 m
2020/12/03 16:52 KATL 031652Z 12008KT 10SM SCT200 SCT250 12/M03 A3033 RMK AO2 SLP273 T01171028
KDFW - Dallas / Fort Worth, Texas, United States
Ultimo Aggiornamento: Giovedì 03 Dicembre 2020 17:53 CET
Nuvoloso
Nuvoloso
 
Temperatura: 7°C
Punto di Rugiada: 3°C
Umidità: 76%
Barometro: 1024.4 hPa
Nuvole: Nuvoloso
Visibilità: 16 km
Nuvole nel Dettaglio: Nuvoloso 518 m
2020/12/03 16:53 KDFW 031653Z 10SM OVC017 07/03 A3025 RMK AO2 SLP245 T00670028 $
 
KMCI - Kansas City, Missouri, United States
Ultimo Aggiornamento: Giovedì 03 Dicembre 2020 17:53 CET
Nuvoloso
Nuvoloso
 Wind from Nord
Vento: Nord 7 km/h
Temperatura: 1°C
Wind Chill: -2°C
Punto di Rugiada: -5°C
Umidità: 65%
Barometro: 1025.1 hPa
Nuvole: Nuvoloso
Visibilità: 16 km
Nuvole nel Dettaglio: Nuvoloso 975 m
2020/12/03 16:53 KMCI 031653Z 36004KT 10SM OVC032 01/M05 A3027 RMK AO2 SLP256 T00061050
KIAH - Houston, Texas, United States
Ultimo Aggiornamento: Giovedì 03 Dicembre 2020 17:53 CET
Prevalentemente Nuvoloso
Prevalentemente Nuvoloso
 Wind from Nord-Nord-Ovest
Vento: Nord-Nord-Ovest 17 km/h
Temperatura: 9°C
Wind Chill: 7°C
Punto di Rugiada: 2°C
Umidità: 62%
Barometro: 1024 hPa
Nuvole: Prevalentemente Nuvoloso
Visibilità: 16 km
Nuvole nel Dettaglio: Prevalentemente Nuvoloso 2591 m
2020/12/03 16:53 KIAH 031653Z 34009KT 10SM BKN085 09/02 A3024 RMK AO2 SLP241 T00890017
KMIA - Miami, Florida, United States
Ultimo Aggiornamento: Giovedì 03 Dicembre 2020 17:53 CET
Prevalentemente Nuvoloso
Prevalentemente Nuvoloso
 Wind from Est
Vento: Est 20 km/h
Temperatura: 23°C
Punto di Rugiada: 13°C
Umidità: 53%
Barometro: 1022.7 hPa
Nuvole: Prevalentemente Nuvoloso
Visibilità: 16 km
Nuvole nel Dettaglio: Prevalentemente Nuvoloso 1158 m
2020/12/03 16:53 KMIA 031653Z 10011KT 10SM BKN038 23/13 A3020 RMK AO2 SLP227 T02330133 $
 
KMSY - New Orleans, Louisiana, United States
Ultimo Aggiornamento: Giovedì 03 Dicembre 2020 17:53 CET
Prevalentemente Nuvoloso
Prevalentemente Nuvoloso
 Wind from Sud-Est
Vento: Sud-Est 13 km/h
Temperatura: 22°C
Punto di Rugiada: 15°C
Umidità: 65%
Barometro: 1020 hPa
Nuvole: Prevalentemente Nuvoloso
Visibilità: 16 km
Nuvole nel Dettaglio: Qualche Nuvola 2134 m
Prevalentemente Nuvoloso 3048 m
Prevalentemente Nuvoloso 5182 m
Prevalentemente Nuvoloso 7620 m
2020/12/03 16:53 KMSY 031653Z 14007KT 10SM FEW070 BKN100 BKN170 BKN250 22/15 A3012 RMK AO2 RAE20 SLP203 P0000 T02220150
MMMX - Mexico City, Mexico
Ultimo Aggiornamento: Giovedì 03 Dicembre 2020 16:46 CET
Prevalentemente Nuvoloso
Prevalentemente Nuvoloso
 Wind from calm
Vento: Calma
Temperatura: 16°C
Punto di Rugiada: 5°C
Umidità: 48%
Barometro: 1027.8 hPa
Nuvole: Prevalentemente Nuvoloso
Visibilità: 14 km
Nuvole nel Dettaglio: Prevalentemente Nuvoloso 6706 m
2020/12/03 15:46 MMMX 031546Z 00000KT 9SM BKN220 16/05 A3035 NOSIG RMK 8/002 HZY
MUHA - Havana, Cuba
Ultimo Aggiornamento: Giovedì 03 Dicembre 2020 16:55 CET
Qualche Nuvola
Qualche Nuvola
 Wind from Est
Vento: Est 19 km/h
Temperatura: 24°C
Punto di Rugiada: 17°C
Umidità: 65%
Barometro: 1020 hPa
Nuvole: Qualche Nuvola
Visibilità: 9 km
Nuvole nel Dettaglio: Qualche Nuvola 914 m
2020/12/03 15:55 MUHA 031555Z 09010KT 070V130 9000 FEW030 24/17 Q1020